createdAt,value
2019-06-01T00:00:10.923Z,10.03
2019-06-01T00:03:03.004Z,10.10
2019-06-01T00:06:06.664Z,9.83
2019-06-01T00:09:11.049Z,9.80
2019-06-01T00:12:15.010Z,9.70
2019-06-01T00:15:18.807Z,9.43
2019-06-01T00:18:22.744Z,8.93
2019-06-01T00:21:26.442Z,9.77
2019-06-01T00:24:30.173Z,9.20
2019-06-01T00:27:33.892Z,9.53
2019-06-01T00:30:37.918Z,9.60
2019-06-01T00:33:41.630Z,9.80
2019-06-01T00:36:45.622Z,9.37
2019-06-01T00:39:50.062Z,9.57
2019-06-01T00:42:54.171Z,10.47
2019-06-01T00:45:57.853Z,11.33
2019-06-01T00:49:01.804Z,12.40
2019-06-01T00:52:05.508Z,10.80
2019-06-01T00:55:09.540Z,11.30
2019-06-01T00:58:13.278Z,10.83
2019-06-01T01:01:17.306Z,11.30
2019-06-01T01:04:21.011Z,12.10
2019-06-01T01:07:24.959Z,12.37
2019-06-01T01:10:28.674Z,11.70
2019-06-01T01:13:33.145Z,11.83
2019-06-01T01:16:36.874Z,11.83
2019-06-01T01:19:41.127Z,11.40
2019-06-01T01:22:46.101Z,11.30
2019-06-01T01:25:50.486Z,12.07
2019-06-01T01:28:54.923Z,13.03
2019-06-01T01:31:58.721Z,12.03
2019-06-01T01:35:02.453Z,11.67
2019-06-01T01:38:06.430Z,12.43
2019-06-01T01:41:10.450Z,12.13
2019-06-01T01:44:14.158Z,11.47
2019-06-01T01:47:17.847Z,11.63
2019-06-01T01:50:23.364Z,10.23
2019-06-01T01:53:27.423Z,10.50
2019-06-01T01:56:31.446Z,10.60
2019-06-01T01:59:35.182Z,10.37
2019-06-01T02:02:39.175Z,11.03
2019-06-01T02:05:43.029Z,10.30
2019-06-01T02:08:46.728Z,11.27
2019-06-01T02:11:51.399Z,10.27
2019-06-01T02:14:55.652Z,11.00
2019-06-01T02:18:00.625Z,10.27
2019-06-01T02:21:04.580Z,10.90
2019-06-01T02:24:08.275Z,9.97
2019-06-01T02:27:12.004Z,11.07
2019-06-01T02:30:17.397Z,11.57
2019-06-01T02:33:21.081Z,12.30
2019-06-01T02:36:24.805Z,11.80
2019-06-01T02:39:28.495Z,12.33
2019-06-01T02:42:32.672Z,11.13
2019-06-01T02:45:36.812Z,11.33
2019-06-01T02:48:40.725Z,11.30
2019-06-01T02:51:44.458Z,10.70
2019-06-01T02:54:48.417Z,10.37
2019-06-01T02:57:52.341Z,11.07
2019-06-01T03:01:30.041Z,12.67
2019-06-01T03:04:33.888Z,11.87
2019-06-01T03:07:39.391Z,10.87
2019-06-01T03:10:44.084Z,10.50
2019-06-01T03:13:51.497Z,11.67
2019-06-01T03:16:59.748Z,12.13
2019-06-01T03:20:06.287Z,12.67
2019-06-01T03:23:12.579Z,12.30
2019-06-01T03:26:20.145Z,12.73
2019-06-01T03:29:27.161Z,12.83
2019-06-01T03:32:36.656Z,12.37
2019-06-01T03:35:36.723Z,11.57
2019-06-01T03:38:40.865Z,11.97
2019-06-01T03:41:44.655Z,11.60
2019-06-01T03:44:48.361Z,11.40
2019-06-01T03:47:52.546Z,11.07
2019-06-01T03:50:56.398Z,11.60
2019-06-01T03:54:00.880Z,12.47
2019-06-01T03:57:05.339Z,9.60
2019-06-01T04:00:09.542Z,11.63
2019-06-01T04:03:13.302Z,10.73
2019-06-01T04:06:17.568Z,10.77
2019-06-01T04:09:21.890Z,9.23
2019-06-01T04:12:25.599Z,10.30
2019-06-01T04:15:29.603Z,7.80
2019-06-01T04:18:33.298Z,9.47
2019-06-01T04:21:36.978Z,8.53
2019-06-01T04:24:40.695Z,9.70
2019-06-01T04:27:44.458Z,8.30
2019-06-01T04:30:48.435Z,8.43
2019-06-01T04:33:52.130Z,8.30
2019-06-01T04:36:56.374Z,8.07
2019-06-01T04:40:00.066Z,7.87
2019-06-01T04:43:05.635Z,8.80
2019-06-01T04:46:10.347Z,8.97
2019-06-01T04:49:15.048Z,8.50
2019-06-01T04:52:18.735Z,8.13
2019-06-01T04:55:22.429Z,7.60
2019-06-01T04:58:26.595Z,8.73
2019-06-01T05:01:30.858Z,8.97
2019-06-01T05:04:34.802Z,8.30
2019-06-01T05:07:38.706Z,7.60
2019-06-01T05:10:42.426Z,8.07
2019-06-01T05:13:46.402Z,8.20
2019-06-01T05:16:50.405Z,8.50
2019-06-01T05:19:54.543Z,9.83
2019-06-01T05:22:58.223Z,8.00
2019-06-01T05:26:02.621Z,9.07
2019-06-01T05:29:07.466Z,9.47
2019-06-01T05:32:12.521Z,9.13
2019-06-01T05:35:17.921Z,9.73
2019-06-01T05:38:21.695Z,9.63
2019-06-01T05:41:25.999Z,9.27
2019-06-01T05:44:29.676Z,9.83
2019-06-01T05:47:33.369Z,9.37
2019-06-01T05:50:37.064Z,9.87
2019-06-01T05:53:40.783Z,8.77
2019-06-01T05:56:44.832Z,8.47
2019-06-01T05:59:49.050Z,8.93
2019-06-01T06:02:52.850Z,10.73
2019-06-01T06:05:56.556Z,10.83
2019-06-01T06:09:00.275Z,9.40
2019-06-01T06:12:04.060Z,10.13
2019-06-01T06:15:08.523Z,10.00
2019-06-01T06:18:13.666Z,10.90
2019-06-01T06:21:18.545Z,11.10
2019-06-01T06:24:22.801Z,10.60
2019-06-01T06:27:26.485Z,10.77
2019-06-01T06:30:30.207Z,11.10
2019-06-01T06:33:36.831Z,10.67
2019-06-01T06:36:39.632Z,9.97
2019-06-01T06:39:43.386Z,11.00
2019-06-01T06:42:47.086Z,10.53
2019-06-01T06:45:50.775Z,10.83
2019-06-01T06:48:55.022Z,11.87
2019-06-01T06:51:58.822Z,10.77
2019-06-01T06:55:02.626Z,11.17
2019-06-01T06:58:06.327Z,9.87
2019-06-01T07:01:12.163Z,11.23
2019-06-01T07:04:17.084Z,11.00
2019-06-01T07:07:21.700Z,9.40
2019-06-01T07:10:26.330Z,9.70
2019-06-01T07:13:31.553Z,10.20
2019-06-01T07:16:35.297Z,10.53
2019-06-01T07:19:38.995Z,11.23
2019-06-01T07:22:42.982Z,10.63
2019-06-01T07:25:46.966Z,10.43
2019-06-01T07:28:50.704Z,10.17
2019-06-01T07:31:54.419Z,10.07
2019-06-01T07:35:00.984Z,9.50
2019-06-01T07:38:04.258Z,10.13
2019-06-01T07:41:07.980Z,9.90
2019-06-01T07:44:11.705Z,9.33
2019-06-01T07:47:15.403Z,9.03
2019-06-01T07:50:19.814Z,9.20
2019-06-01T07:53:24.180Z,9.53
2019-06-01T07:56:29.331Z,9.03
2019-06-01T07:59:33.459Z,8.07
2019-06-01T08:02:37.351Z,8.60
2019-06-01T08:05:41.682Z,8.70
2019-06-01T08:08:45.735Z,8.43
2019-06-01T08:11:49.463Z,11.47
2019-06-01T08:14:53.548Z,7.40
2019-06-01T08:17:57.508Z,7.17
2019-06-01T08:21:01.209Z,6.87
2019-06-01T08:24:05.112Z,6.77
2019-06-01T08:27:08.848Z,7.40
2019-06-01T08:30:13.341Z,6.67
2019-06-01T08:33:17.347Z,5.67
2019-06-01T08:36:21.034Z,5.60
2019-06-01T08:39:25.255Z,5.50
2019-06-01T08:42:29.559Z,6.00
2019-06-01T08:45:37.272Z,6.00
2019-06-01T08:48:38.871Z,5.67
2019-06-01T08:51:42.573Z,5.27
2019-06-01T08:54:46.994Z,6.77
2019-06-01T08:57:50.972Z,5.43
2019-06-01T09:00:54.891Z,5.43
2019-06-01T09:03:58.585Z,6.27
2019-06-01T09:07:02.721Z,5.47
2019-06-01T09:10:07.967Z,5.10
2019-06-01T09:13:11.721Z,5.87
2019-06-01T09:16:15.448Z,5.40
2019-06-01T09:19:20.097Z,5.40
2019-06-01T09:22:23.871Z,5.60
2019-06-01T09:25:27.911Z,5.70
2019-06-01T09:28:32.157Z,5.67
2019-06-01T09:31:36.731Z,5.13
2019-06-01T09:34:40.894Z,5.10
2019-06-01T09:37:45.872Z,4.53
2019-06-01T09:40:50.370Z,6.13
2019-06-01T09:43:54.372Z,6.80
2019-06-01T09:46:58.132Z,5.53
2019-06-01T09:50:01.833Z,5.70
2019-06-01T09:53:05.899Z,5.90
2019-06-01T09:56:09.616Z,5.97
2019-06-01T09:59:13.333Z,5.20
2019-06-01T10:02:17.432Z,5.30
2019-06-01T10:05:21.189Z,5.47
2019-06-01T10:08:24.870Z,5.97
2019-06-01T10:11:29.839Z,6.07
2019-06-01T10:14:34.171Z,5.23
2019-06-01T10:17:39.036Z,5.00
2019-06-01T10:20:43.235Z,5.43
2019-06-01T10:23:49.664Z,5.33
2019-06-01T10:26:52.696Z,5.00
2019-06-01T10:29:56.429Z,4.90
2019-06-01T10:33:00.429Z,5.03
2019-06-01T10:36:19.309Z,5.60
2019-06-01T10:39:10.101Z,5.10
2019-06-01T10:42:13.802Z,4.55
2019-06-01T10:45:17.641Z,4.40
2019-06-01T10:48:21.600Z,3.72
2019-06-01T10:51:25.363Z,5.40
2019-06-01T10:54:29.304Z,4.92
2019-06-01T10:57:34.497Z,4.85
2019-06-01T11:00:45.505Z,4.70
2019-06-01T11:03:43.657Z,3.35
2019-06-01T11:06:48.855Z,3.92
2019-06-01T11:09:52.725Z,3.27
2019-06-01T11:12:56.674Z,3.65
2019-06-01T11:16:00.442Z,4.10
2019-06-01T11:19:04.603Z,3.30
2019-06-01T11:22:08.370Z,3.60
2019-06-01T11:25:12.316Z,3.40
2019-06-01T11:28:16.338Z,3.60
2019-06-01T11:31:20.646Z,3.77
2019-06-01T11:34:24.454Z,4.00
2019-06-01T11:37:28.164Z,3.87
2019-06-01T11:40:32.176Z,3.47
2019-06-01T11:43:36.496Z,3.25
2019-06-01T11:46:41.090Z,3.15
2019-06-01T11:49:45.122Z,2.90
2019-06-01T11:52:48.834Z,3.37
2019-06-01T11:55:52.541Z,3.17
2019-06-01T11:58:56.232Z,3.30
2019-06-01T12:02:00.270Z,2.90
2019-06-01T12:05:04.384Z,2.70
2019-06-01T12:08:08.136Z,2.80
2019-06-01T12:11:11.833Z,2.80
2019-06-01T12:14:15.544Z,3.22
2019-06-01T12:17:19.548Z,2.80
2019-06-01T12:20:23.868Z,2.70
2019-06-01T12:23:28.034Z,2.60
2019-06-01T12:26:32.104Z,2.80
2019-06-01T12:29:35.899Z,2.40
2019-06-01T12:32:39.911Z,2.02
2019-06-01T12:35:44.007Z,2.12
2019-06-01T12:38:54.056Z,2.10
2019-06-01T12:41:58.317Z,1.80
2019-06-01T12:45:02.240Z,1.80
2019-06-01T12:48:06.175Z,2.10
2019-06-01T12:51:09.860Z,1.52
2019-06-01T12:54:13.808Z,1.90
2019-06-01T12:57:17.523Z,2.55
2019-06-01T13:00:21.597Z,2.22
2019-06-01T13:03:25.599Z,2.05
2019-06-01T13:06:29.892Z,2.20
2019-06-01T13:09:33.584Z,1.98
2019-06-01T13:12:37.272Z,2.00
2019-06-01T13:15:41.230Z,2.65
2019-06-01T13:18:45.400Z,2.40
2019-06-01T13:21:50.172Z,2.42
2019-06-01T13:24:54.388Z,2.58
2019-06-01T13:27:58.325Z,2.67
2019-06-01T13:31:02.336Z,2.55
2019-06-01T13:34:06.096Z,2.30
2019-06-01T13:37:09.883Z,2.60
2019-06-01T13:40:14.258Z,2.40
2019-06-01T13:43:17.951Z,2.05
2019-06-01T13:46:21.636Z,1.95
2019-06-01T13:49:25.599Z,1.90
2019-06-01T13:52:29.288Z,2.20
2019-06-01T13:55:33.001Z,2.30
2019-06-01T13:58:37.305Z,2.10
2019-06-01T14:01:41.330Z,2.20
2019-06-01T14:04:45.360Z,1.60
2019-06-01T14:07:49.518Z,2.10
2019-06-01T14:10:53.321Z,2.30
2019-06-01T14:13:57.368Z,2.50
2019-06-01T14:17:01.353Z,2.40
2019-06-01T14:20:05.335Z,2.30
2019-06-01T14:23:09.616Z,1.80
2019-06-01T14:26:13.856Z,2.40
2019-06-01T14:29:17.571Z,2.42
2019-06-01T14:32:21.512Z,2.40
2019-06-01T14:35:25.620Z,2.42
2019-06-01T14:38:45.925Z,2.20
2019-06-01T14:41:34.764Z,2.50
2019-06-01T14:44:38.766Z,2.90
2019-06-01T14:47:42.788Z,2.92
2019-06-01T14:50:47.516Z,2.10
2019-06-01T14:53:51.676Z,2.10
2019-06-01T14:56:55.942Z,2.90
2019-06-01T14:59:59.594Z,2.50
2019-06-01T15:03:03.802Z,2.23
2019-06-01T15:06:08.200Z,2.20
2019-06-01T15:09:18.990Z,2.93
2019-06-01T15:12:17.759Z,2.50
2019-06-01T15:15:21.919Z,2.23
2019-06-01T15:18:25.997Z,2.80
2019-06-01T15:21:30.025Z,3.30
2019-06-01T15:24:34.024Z,3.90
2019-06-01T15:27:37.780Z,3.50
2019-06-01T15:30:41.870Z,4.87
2019-06-01T15:33:45.858Z,4.20
2019-06-01T15:36:49.600Z,4.37
2019-06-01T15:39:54.580Z,4.10
2019-06-01T15:42:59.373Z,4.40
2019-06-01T15:46:03.168Z,4.50
2019-06-01T15:49:07.361Z,4.10
2019-06-01T15:52:11.054Z,4.27
2019-06-01T15:55:15.674Z,5.00
2019-06-01T15:58:19.638Z,4.13
2019-06-01T16:01:23.349Z,4.83
2019-06-01T16:04:27.057Z,5.53
2019-06-01T16:07:30.993Z,4.53
2019-06-01T16:10:34.933Z,5.90
2019-06-01T16:13:38.642Z,5.10
2019-06-01T16:16:42.338Z,4.27
2019-06-01T16:19:46.289Z,4.70
2019-06-01T16:22:50.309Z,4.07
2019-06-01T16:26:06.650Z,4.83
2019-06-01T16:29:00.527Z,5.33
2019-06-01T16:32:05.018Z,4.87
2019-06-01T16:35:09.357Z,5.07
2019-06-01T16:38:13.148Z,4.93
2019-06-01T16:41:17.444Z,4.77
2019-06-01T16:44:21.201Z,5.70
2019-06-01T16:47:25.288Z,5.40
2019-06-01T16:50:29.010Z,5.00
2019-06-01T16:53:32.991Z,4.60
2019-06-01T16:56:36.713Z,4.50
2019-06-01T16:59:40.803Z,4.53
2019-06-01T17:02:44.592Z,3.67
2019-06-01T17:05:48.322Z,5.17
2019-06-01T17:08:52.369Z,4.67
2019-06-01T17:11:56.719Z,3.90
2019-06-01T17:15:00.926Z,3.60
2019-06-01T17:18:08.622Z,3.70
2019-06-01T17:21:10.956Z,4.10
2019-06-01T17:24:14.673Z,4.60
2019-06-01T17:27:18.665Z,3.50
2019-06-01T17:30:22.432Z,3.20
2019-06-01T17:33:26.435Z,3.70
2019-06-01T17:36:30.534Z,3.27
2019-06-01T17:39:34.248Z,4.43
2019-06-01T17:42:38.313Z,3.90
2019-06-01T17:45:42.155Z,3.60
2019-06-01T17:48:46.029Z,3.67
2019-06-01T17:51:49.825Z,3.50
2019-06-01T17:54:54.308Z,4.60
2019-06-01T17:57:58.269Z,4.23
2019-06-01T18:01:04.095Z,4.20
2019-06-01T18:04:08.146Z,4.53
2019-06-01T18:07:12.238Z,4.50
2019-06-01T18:10:17.116Z,3.83
2019-06-01T18:13:21.207Z,4.37
2019-06-01T18:16:25.047Z,4.53
2019-06-01T18:19:28.776Z,3.77
2019-06-01T18:22:32.771Z,3.60
2019-06-01T18:25:36.555Z,3.67
2019-06-01T18:28:40.266Z,3.03
2019-06-01T18:31:44.404Z,3.70
2019-06-01T18:34:48.421Z,4.40
2019-06-01T18:37:52.732Z,3.50
2019-06-01T18:41:09.462Z,3.63
2019-06-01T18:44:03.589Z,3.97
2019-06-01T18:47:07.852Z,3.73
2019-06-01T18:50:17.252Z,4.80
2019-06-01T18:53:19.669Z,5.03
2019-06-01T18:56:23.390Z,6.17
2019-06-01T18:59:27.694Z,5.30
2019-06-01T19:02:31.494Z,9.37
2019-06-01T19:05:35.815Z,7.07
2019-06-01T19:08:39.557Z,5.83
2019-06-01T19:11:43.531Z,5.67
2019-06-01T19:14:47.253Z,5.17
2019-06-01T19:17:51.006Z,4.27
2019-06-01T19:20:54.978Z,4.00
2019-06-01T19:23:58.700Z,3.03
2019-06-01T19:27:02.470Z,3.57
2019-06-01T19:30:08.877Z,3.53
2019-06-01T19:33:15.337Z,3.07
2019-06-01T19:36:19.148Z,2.63
2019-06-01T19:39:23.912Z,2.67
2019-06-01T19:42:27.611Z,2.40
2019-06-01T19:45:31.389Z,2.53
2019-06-01T19:48:35.089Z,2.60
2019-06-01T19:51:38.784Z,2.17
2019-06-01T19:54:42.488Z,2.10
2019-06-01T19:57:46.190Z,2.33
2019-06-01T20:00:50.141Z,2.30
2019-06-01T20:03:54.074Z,2.30
2019-06-01T20:06:57.771Z,2.47
2019-06-01T20:10:01.808Z,2.37
2019-06-01T20:13:05.868Z,2.30
2019-06-01T20:16:10.723Z,2.57
2019-06-01T20:19:15.602Z,2.70
2019-06-01T20:22:19.445Z,2.67
2019-06-01T20:25:23.478Z,2.60
2019-06-01T20:28:27.436Z,2.47
2019-06-01T20:31:31.504Z,3.00
2019-06-01T20:34:35.200Z,2.43
2019-06-01T20:37:39.514Z,2.80
2019-06-01T20:40:43.305Z,3.23
2019-06-01T20:43:47.300Z,3.70
2019-06-01T20:46:51.319Z,3.77
2019-06-01T20:49:55.346Z,3.27
2019-06-01T20:52:59.152Z,2.53
2019-06-01T20:56:02.872Z,2.90
2019-06-01T20:59:07.180Z,2.97
2019-06-01T21:02:10.925Z,2.80
2019-06-01T21:05:16.137Z,3.20
2019-06-01T21:08:20.369Z,2.80
2019-06-01T21:11:24.540Z,3.10
2019-06-01T21:14:28.496Z,2.80
2019-06-01T21:17:32.517Z,2.67
2019-06-01T21:20:36.482Z,2.50
2019-06-01T21:23:40.470Z,2.60
2019-06-01T21:26:44.648Z,3.10
2019-06-01T21:29:48.759Z,3.60
2019-06-01T21:32:52.523Z,3.10
2019-06-01T21:35:56.890Z,3.20
2019-06-01T21:39:00.666Z,4.63
2019-06-01T21:42:04.522Z,4.90
2019-06-01T21:45:08.966Z,3.90
2019-06-01T21:48:12.764Z,3.70
2019-06-01T21:51:17.648Z,3.60
2019-06-01T21:54:22.287Z,4.00
2019-06-01T21:57:26.667Z,4.00
2019-06-01T22:00:34.082Z,3.43
2019-06-01T22:03:37.826Z,3.63
2019-06-01T22:06:41.529Z,3.23
2019-06-01T22:09:45.244Z,3.20
2019-06-01T22:12:49.014Z,3.43
2019-06-01T22:15:54.374Z,3.20
2019-06-01T22:18:58.426Z,3.50
2019-06-01T22:22:03.052Z,3.90
2019-06-01T22:25:07.039Z,4.30
2019-06-01T22:28:11.183Z,3.70
2019-06-01T22:31:15.474Z,3.67
2019-06-01T22:34:20.584Z,3.80
2019-06-01T22:37:25.493Z,3.40
2019-06-01T22:40:29.771Z,3.90
2019-06-01T22:43:45.431Z,3.80
2019-06-01T22:46:39.797Z,3.23
2019-06-01T22:49:43.895Z,3.50
2019-06-01T22:52:47.953Z,3.70
2019-06-01T22:55:51.662Z,3.03
2019-06-01T22:58:55.724Z,3.50
2019-06-01T23:01:59.541Z,3.43
2019-06-01T23:05:03.284Z,3.20
2019-06-01T23:08:06.997Z,3.30
2019-06-01T23:11:10.790Z,3.47
2019-06-01T23:14:14.833Z,3.50
2019-06-01T23:17:18.541Z,3.13
2019-06-01T23:20:22.267Z,3.63
2019-06-01T23:23:26.084Z,3.43
2019-06-01T23:26:30.312Z,3.43
2019-06-01T23:29:34.177Z,3.50
2019-06-01T23:32:38.157Z,3.30
2019-06-01T23:35:42.181Z,3.80
2019-06-01T23:38:45.894Z,3.80
2019-06-01T23:41:49.612Z,3.63
2019-06-01T23:44:53.327Z,3.43
2019-06-01T23:47:57.045Z,3.30
2019-06-01T23:51:00.767Z,3.57
2019-06-01T23:54:04.555Z,3.70
2019-06-01T23:57:08.917Z,3.30
